createdAt,value
2023-03-26T00:00:34.714Z,1.95
2023-03-26T00:03:05.386Z,2.22
2023-03-26T00:05:35.851Z,2.00
2023-03-26T00:08:09.211Z,2.10
2023-03-26T00:10:41.031Z,2.15
2023-03-26T00:13:12.134Z,1.90
2023-03-26T00:15:43.813Z,2.20
2023-03-26T00:18:14.368Z,2.05
2023-03-26T00:20:45.952Z,2.20
2023-03-26T00:23:16.408Z,2.08
2023-03-26T00:25:51.380Z,2.13
2023-03-26T00:28:23.059Z,2.10
2023-03-26T00:31:02.432Z,2.08
2023-03-26T00:33:33.585Z,1.98
2023-03-26T00:36:04.866Z,1.92
2023-03-26T00:38:39.365Z,2.10
2023-03-26T00:41:18.231Z,2.08
2023-03-26T00:43:49.684Z,2.00
2023-03-26T00:46:22.508Z,2.25
2023-03-26T00:48:53.264Z,1.92
2023-03-26T00:51:24.722Z,2.00
2023-03-26T00:53:55.187Z,2.13
2023-03-26T00:56:25.417Z,2.00
2023-03-26T00:58:55.878Z,2.00
2023-03-26T01:01:30.900Z,1.92
2023-03-26T01:04:32.089Z,1.92
2023-03-26T01:07:06.927Z,1.80
2023-03-26T01:09:45.483Z,1.80
2023-03-26T01:12:20.099Z,1.75
2023-03-26T01:14:53.062Z,1.88
2023-03-26T01:17:26.793Z,1.90
2023-03-26T01:20:13.411Z,1.88
2023-03-26T01:22:50.511Z,1.67
2023-03-26T01:25:26.319Z,1.80
2023-03-26T01:27:58.589Z,1.83
2023-03-26T01:30:38.968Z,1.95
2023-03-26T01:33:21.424Z,1.73
2023-03-26T01:36:03.067Z,1.98
2023-03-26T01:38:47.203Z,1.90
2023-03-26T01:41:30.738Z,2.00
2023-03-26T01:44:10.586Z,1.90
2023-03-26T01:46:42.590Z,1.73
2023-03-26T01:49:13.836Z,1.77
2023-03-26T01:51:45.689Z,1.77
2023-03-26T01:54:22.314Z,2.00
2023-03-26T01:57:12.586Z,1.90
2023-03-26T02:00:12.995Z,1.90
2023-03-26T02:03:06.621Z,1.88
2023-03-26T02:05:44.263Z,1.77
2023-03-26T02:08:26.883Z,1.95
2023-03-26T02:11:02.173Z,1.80
2023-03-26T02:13:34.908Z,1.52
2023-03-26T02:16:08.921Z,1.55
2023-03-26T02:18:39.522Z,1.70
2023-03-26T02:21:14.035Z,1.90
2023-03-26T02:23:47.695Z,1.80
2023-03-26T02:26:22.078Z,1.75
2023-03-26T02:28:54.601Z,1.80
2023-03-26T02:31:26.728Z,1.58
2023-03-26T02:33:57.905Z,1.90
2023-03-26T02:36:29.573Z,1.90
2023-03-26T02:39:00.714Z,2.00
2023-03-26T02:41:30.566Z,1.88
2023-03-26T02:44:02.649Z,1.70
2023-03-26T02:46:32.674Z,1.63
2023-03-26T02:49:03.099Z,1.90
2023-03-26T02:51:35.125Z,2.00
2023-03-26T02:54:07.376Z,1.80
2023-03-26T02:56:37.484Z,1.70
2023-03-26T02:59:09.796Z,1.83
2023-03-26T03:01:46.942Z,1.63
2023-03-26T03:04:18.331Z,1.70
2023-03-26T03:06:53.221Z,1.75
2023-03-26T03:09:23.796Z,1.70
2023-03-26T03:11:54.735Z,1.55
2023-03-26T03:14:26.765Z,1.58
2023-03-26T03:16:57.564Z,1.40
2023-03-26T03:19:27.960Z,1.63
2023-03-26T03:21:58.336Z,1.65
2023-03-26T03:24:28.786Z,1.50
2023-03-26T03:27:00.679Z,1.98
2023-03-26T03:29:33.088Z,1.58
2023-03-26T03:32:02.947Z,1.60
2023-03-26T03:34:32.879Z,1.70
2023-03-26T03:37:03.142Z,1.60
2023-03-26T03:39:33.493Z,1.58
2023-03-26T03:42:03.893Z,1.45
2023-03-26T03:44:36.531Z,1.70
2023-03-26T03:47:07.442Z,1.73
2023-03-26T03:49:37.710Z,1.48
2023-03-26T03:52:08.328Z,1.30
2023-03-26T03:54:45.481Z,1.80
2023-03-26T03:57:16.425Z,1.65
2023-03-26T03:59:48.322Z,1.50
2023-03-26T04:02:26.932Z,1.63
2023-03-26T04:04:57.901Z,1.50
2023-03-26T04:07:31.140Z,1.98
2023-03-26T04:10:03.301Z,1.50
2023-03-26T04:12:34.144Z,1.38
2023-03-26T04:15:07.612Z,1.50
2023-03-26T04:17:43.066Z,1.50
2023-03-26T04:20:16.111Z,1.60
2023-03-26T04:22:47.023Z,1.45
2023-03-26T04:25:18.642Z,1.55
2023-03-26T04:27:50.703Z,1.50
2023-03-26T04:30:23.968Z,1.60
2023-03-26T04:32:58.856Z,1.60
2023-03-26T04:35:30.700Z,1.70
2023-03-26T04:38:01.270Z,1.50
2023-03-26T04:40:31.969Z,1.48
2023-03-26T04:43:02.758Z,1.60
2023-03-26T04:45:35.095Z,1.55
2023-03-26T04:48:07.725Z,1.40
2023-03-26T04:50:38.278Z,1.60
2023-03-26T04:53:08.430Z,1.67
2023-03-26T04:55:49.730Z,1.38
2023-03-26T04:58:20.804Z,1.52
2023-03-26T05:00:52.249Z,1.55
2023-03-26T05:03:22.619Z,1.42
2023-03-26T05:05:53.393Z,1.48
2023-03-26T05:08:23.843Z,1.45
2023-03-26T05:10:54.449Z,1.50
2023-03-26T05:13:24.748Z,1.70
2023-03-26T05:15:57.181Z,1.40
2023-03-26T05:18:27.562Z,1.42
2023-03-26T05:20:58.184Z,1.40
2023-03-26T05:23:28.552Z,1.55
2023-03-26T05:25:58.960Z,1.38
2023-03-26T05:28:29.842Z,1.70
2023-03-26T05:31:03.146Z,1.40
2023-03-26T05:33:33.482Z,1.60
2023-03-26T05:36:05.976Z,1.30
2023-03-26T05:38:36.725Z,1.27
2023-03-26T05:41:09.360Z,1.30
2023-03-26T05:43:39.663Z,1.75
2023-03-26T05:46:12.889Z,1.50
2023-03-26T05:48:43.282Z,1.25
2023-03-26T05:51:13.532Z,1.40
2023-03-26T05:53:44.101Z,1.15
2023-03-26T05:56:14.785Z,1.55
2023-03-26T05:58:45.038Z,1.33
2023-03-26T06:01:19.206Z,1.30
2023-03-26T06:03:49.647Z,1.33
2023-03-26T06:06:22.262Z,1.50
2023-03-26T06:09:01.535Z,1.52
2023-03-26T06:11:34.464Z,1.27
2023-03-26T06:14:04.816Z,1.40
2023-03-26T06:16:37.607Z,1.25
2023-03-26T06:19:08.036Z,1.42
2023-03-26T06:21:38.405Z,1.25
2023-03-26T06:24:09.708Z,1.13
2023-03-26T06:26:40.138Z,1.27
2023-03-26T06:29:10.244Z,1.70
2023-03-26T06:31:43.631Z,1.35
2023-03-26T06:34:13.995Z,1.30
2023-03-26T06:36:44.388Z,1.25
2023-03-26T06:39:14.651Z,1.50
2023-03-26T06:41:44.493Z,1.30
2023-03-26T06:44:14.954Z,1.40
2023-03-26T06:46:47.415Z,1.42
2023-03-26T06:49:17.826Z,1.30
2023-03-26T06:51:47.812Z,1.70
2023-03-26T06:54:17.958Z,1.15
2023-03-26T06:56:48.344Z,1.25
2023-03-26T06:59:18.812Z,1.17
2023-03-26T07:01:51.288Z,1.55
2023-03-26T07:04:21.710Z,1.40
2023-03-26T07:06:52.214Z,1.50
2023-03-26T07:09:22.748Z,1.35
2023-03-26T07:11:53.157Z,1.27
2023-03-26T07:14:24.871Z,1.38
2023-03-26T07:16:56.568Z,1.23
2023-03-26T07:19:27.048Z,1.40
2023-03-26T07:21:58.055Z,1.50
2023-03-26T07:24:28.715Z,1.40
2023-03-26T07:27:08.877Z,1.40
2023-03-26T07:29:47.157Z,1.20
2023-03-26T07:32:31.269Z,1.40
2023-03-26T07:35:13.115Z,1.20
2023-03-26T07:38:03.270Z,1.27
2023-03-26T07:40:55.254Z,1.08
2023-03-26T07:43:46.868Z,1.08
2023-03-26T07:46:19.828Z,1.10
2023-03-26T07:48:55.361Z,1.20
2023-03-26T07:51:26.434Z,0.90
2023-03-26T07:53:58.763Z,1.40
2023-03-26T07:56:37.606Z,1.40
2023-03-26T07:59:23.743Z,1.25
2023-03-26T08:02:31.982Z,1.25
2023-03-26T08:05:21.004Z,1.33
2023-03-26T08:08:09.974Z,1.17
2023-03-26T08:10:53.228Z,1.10
2023-03-26T08:13:32.035Z,1.55
2023-03-26T08:16:12.735Z,1.50
2023-03-26T08:18:54.708Z,1.30
2023-03-26T08:21:34.353Z,1.17
2023-03-26T08:24:16.627Z,1.40
2023-03-26T08:26:58.795Z,1.30
2023-03-26T08:29:38.804Z,1.40
2023-03-26T08:32:17.498Z,1.20
2023-03-26T08:34:48.700Z,1.23
2023-03-26T08:37:20.570Z,1.20
2023-03-26T08:39:51.162Z,1.15
2023-03-26T08:43:06.510Z,1.00
2023-03-26T08:46:24.748Z,1.15
2023-03-26T08:49:46.829Z,1.20
2023-03-26T08:53:01.908Z,1.40
2023-03-26T08:55:52.200Z,1.17
2023-03-26T08:59:08.781Z,0.90
2023-03-26T09:02:49.099Z,1.30
2023-03-26T09:06:09.341Z,1.35
2023-03-26T09:09:22.399Z,1.42
2023-03-26T09:12:36.119Z,1.20
2023-03-26T09:15:49.992Z,1.23
2023-03-26T09:19:13.101Z,0.98
2023-03-26T09:22:27.025Z,1.13
2023-03-26T09:25:28.742Z,1.15
2023-03-26T09:28:53.173Z,1.15
2023-03-26T09:32:13.175Z,1.00
2023-03-26T09:35:13.791Z,1.33
2023-03-26T09:38:03.076Z,1.13
2023-03-26T09:41:01.642Z,0.90
2023-03-26T09:44:19.278Z,1.00
2023-03-26T09:47:22.787Z,1.02
2023-03-26T09:50:03.803Z,1.30
2023-03-26T09:53:04.345Z,1.30
2023-03-26T09:56:11.064Z,1.27
2023-03-26T09:59:39.205Z,1.08
2023-03-26T10:02:45.797Z,0.85
2023-03-26T10:05:42.085Z,1.23
2023-03-26T10:08:54.753Z,1.10
2023-03-26T10:11:49.335Z,1.13
2023-03-26T10:14:30.920Z,1.00
2023-03-26T10:17:25.929Z,1.20
2023-03-26T10:20:32.002Z,1.02
2023-03-26T10:23:22.967Z,1.00
2023-03-26T10:26:20.646Z,1.20
2023-03-26T10:29:41.568Z,1.10
2023-03-26T10:32:28.582Z,1.20
2023-03-26T10:35:20.724Z,1.35
2023-03-26T10:38:18.323Z,1.35
2023-03-26T10:41:07.077Z,1.20
2023-03-26T10:44:18.245Z,1.30
2023-03-26T10:47:20.893Z,1.20
2023-03-26T10:50:23.230Z,1.10
2023-03-26T10:53:02.698Z,1.38
2023-03-26T10:55:40.423Z,1.55
2023-03-26T10:58:23.815Z,1.48
2023-03-26T11:01:04.721Z,1.45
2023-03-26T11:03:52.749Z,1.60
2023-03-26T11:06:37.295Z,1.48
2023-03-26T11:09:23.638Z,1.50
2023-03-26T11:12:04.250Z,1.40
2023-03-26T11:15:07.605Z,1.40
2023-03-26T11:17:53.377Z,1.48
2023-03-26T11:20:38.599Z,1.63
2023-03-26T11:23:29.850Z,1.60
2023-03-26T11:26:17.994Z,1.60
2023-03-26T11:29:32.261Z,1.67
2023-03-26T11:32:12.116Z,1.63
2023-03-26T11:34:48.247Z,1.55
2023-03-26T11:37:34.432Z,1.80
2023-03-26T11:40:12.363Z,1.48
2023-03-26T11:42:46.190Z,1.67
2023-03-26T11:45:24.479Z,1.58
2023-03-26T11:48:01.384Z,1.45
2023-03-26T11:50:37.015Z,1.50
2023-03-26T11:53:18.026Z,1.88
2023-03-26T11:55:59.019Z,1.60
2023-03-26T11:58:37.610Z,1.63
2023-03-26T12:01:16.703Z,1.70
2023-03-26T12:03:59.304Z,1.40
2023-03-26T12:06:30.313Z,1.70
2023-03-26T12:09:02.426Z,1.52
2023-03-26T12:11:36.074Z,1.33
2023-03-26T12:14:08.178Z,1.58
2023-03-26T12:16:38.543Z,1.70
2023-03-26T12:19:22.718Z,1.60
2023-03-26T12:21:55.219Z,1.48
2023-03-26T12:24:34.068Z,1.50
2023-03-26T12:27:28.744Z,1.50
2023-03-26T12:30:12.389Z,1.42
2023-03-26T12:32:46.811Z,1.33
2023-03-26T12:35:20.973Z,1.65
2023-03-26T12:37:51.065Z,1.60
2023-03-26T12:40:45.368Z,1.52
2023-03-26T12:44:53.355Z,1.65
2023-03-26T12:47:56.278Z,1.60
2023-03-26T12:49:21.026Z,1.45
2023-03-26T12:51:57.111Z,1.60
2023-03-26T12:54:45.983Z,1.40
2023-03-26T12:57:23.306Z,1.50
2023-03-26T13:00:27.673Z,1.38
2023-03-26T13:03:24.154Z,1.38
2023-03-26T13:06:10.736Z,1.40
2023-03-26T13:09:16.064Z,1.40
2023-03-26T13:12:00.846Z,1.65
2023-03-26T13:15:06.362Z,1.30
2023-03-26T13:17:46.371Z,1.70
2023-03-26T13:20:27.411Z,1.48
2023-03-26T13:23:08.562Z,1.60
2023-03-26T13:25:50.833Z,1.50
2023-03-26T13:28:39.598Z,1.33
2023-03-26T13:31:22.318Z,1.52
2023-03-26T13:34:06.261Z,1.40
2023-03-26T13:36:53.138Z,1.60
2023-03-26T13:39:40.008Z,1.25
2023-03-26T13:42:38.228Z,1.58
2023-03-26T13:45:29.786Z,1.30
2023-03-26T13:48:05.429Z,1.50
2023-03-26T13:50:41.353Z,1.63
2023-03-26T13:53:20.563Z,1.48
2023-03-26T13:55:55.314Z,1.38
2023-03-26T13:58:34.567Z,1.33
2023-03-26T14:01:12.769Z,1.30
2023-03-26T14:03:58.364Z,1.40
2023-03-26T14:06:43.861Z,1.40
2023-03-26T14:09:24.163Z,1.23
2023-03-26T14:12:21.964Z,1.60
2023-03-26T14:14:59.319Z,1.20
2023-03-26T14:17:39.378Z,1.30
2023-03-26T14:20:53.205Z,1.30
2023-03-26T14:23:46.459Z,1.35
2023-03-26T14:26:43.034Z,1.23
2023-03-26T14:29:32.975Z,1.27
2023-03-26T14:32:45.190Z,1.52
2023-03-26T14:35:38.153Z,1.17
2023-03-26T14:38:56.913Z,1.25
2023-03-26T14:41:31.712Z,1.10
2023-03-26T14:44:49.262Z,1.40
2023-03-26T14:47:22.878Z,1.25
2023-03-26T14:50:42.915Z,1.58
2023-03-26T14:53:25.934Z,1.27
2023-03-26T14:56:49.146Z,1.30
2023-03-26T15:00:15.932Z,1.10
2023-03-26T15:03:53.614Z,1.20
2023-03-26T15:07:27.802Z,1.40
2023-03-26T15:10:54.724Z,1.20
2023-03-26T15:14:37.154Z,1.05
2023-03-26T15:18:07.740Z,1.35
2023-03-26T15:21:34.268Z,1.27
2023-03-26T15:25:07.241Z,1.23
2023-03-26T15:28:35.252Z,1.25
2023-03-26T15:32:03.313Z,1.42
2023-03-26T15:35:26.540Z,1.38
2023-03-26T15:38:40.427Z,1.40
2023-03-26T15:41:27.187Z,1.50
2023-03-26T15:44:53.104Z,1.60
2023-03-26T15:48:11.397Z,1.38
2023-03-26T15:50:56.657Z,1.40
2023-03-26T15:53:45.475Z,1.50
2023-03-26T15:56:33.928Z,1.40
2023-03-26T15:59:19.982Z,1.50
2023-03-26T16:02:05.082Z,1.50
2023-03-26T16:04:52.615Z,1.45
2023-03-26T16:08:03.134Z,1.17
2023-03-26T16:10:45.105Z,1.40
2023-03-26T16:13:36.554Z,1.45
2023-03-26T16:16:42.779Z,1.30
2023-03-26T16:20:23.323Z,1.55
2023-03-26T16:23:02.009Z,1.27
2023-03-26T16:25:38.947Z,1.50
2023-03-26T16:28:36.908Z,1.42
2023-03-26T16:31:38.737Z,1.40
2023-03-26T16:34:41.581Z,1.30
2023-03-26T16:37:45.969Z,1.38
2023-03-26T16:40:51.611Z,1.30
2023-03-26T16:43:56.320Z,1.48
2023-03-26T16:46:42.978Z,1.50
2023-03-26T16:49:33.290Z,1.50
2023-03-26T16:52:22.499Z,1.33
2023-03-26T16:55:05.683Z,1.50
2023-03-26T16:57:50.417Z,1.40
2023-03-26T17:00:43.653Z,1.42
2023-03-26T17:03:38.104Z,1.55
2023-03-26T17:06:29.381Z,1.60
2023-03-26T17:09:15.719Z,1.65
2023-03-26T17:12:04.985Z,1.40
2023-03-26T17:15:05.235Z,1.58
2023-03-26T17:18:04.800Z,1.27
2023-03-26T17:20:44.845Z,1.48
2023-03-26T17:23:37.298Z,1.63
2023-03-26T17:26:21.973Z,1.45
2023-03-26T17:29:13.845Z,1.45
2023-03-26T17:31:53.410Z,1.30
2023-03-26T17:35:04.732Z,1.50
2023-03-26T17:37:48.302Z,1.25
2023-03-26T17:40:55.199Z,1.20
2023-03-26T17:43:47.245Z,1.20
2023-03-26T17:46:36.871Z,1.30
2023-03-26T17:49:19.817Z,1.10
2023-03-26T17:51:57.781Z,1.27
2023-03-26T17:54:36.803Z,1.48
2023-03-26T17:57:16.754Z,1.40
2023-03-26T17:59:49.437Z,1.48
2023-03-26T18:02:24.388Z,1.30
2023-03-26T18:04:59.057Z,1.50
2023-03-26T18:08:26.020Z,1.30
2023-03-26T18:11:51.664Z,1.15
2023-03-26T18:15:05.831Z,1.20
2023-03-26T18:17:46.355Z,0.98
2023-03-26T18:20:29.135Z,1.30
2023-03-26T18:22:59.253Z,1.40
2023-03-26T18:25:34.248Z,1.20
2023-03-26T18:28:05.062Z,1.30
2023-03-26T18:30:46.926Z,1.15
2023-03-26T18:33:19.248Z,1.13
2023-03-26T18:35:57.413Z,1.20
2023-03-26T18:38:36.111Z,1.30
2023-03-26T18:41:17.501Z,1.02
2023-03-26T18:43:48.052Z,1.08
2023-03-26T18:46:19.234Z,1.20
2023-03-26T18:48:50.299Z,1.30
2023-03-26T18:51:23.483Z,0.95
2023-03-26T18:53:57.787Z,1.27
2023-03-26T18:56:34.186Z,0.82
2023-03-26T18:59:07.387Z,1.13
2023-03-26T19:01:40.266Z,1.40
2023-03-26T19:04:14.977Z,1.00
2023-03-26T19:06:47.980Z,1.13
2023-03-26T19:09:31.152Z,0.98
2023-03-26T19:12:09.962Z,0.95
2023-03-26T19:14:58.609Z,1.10
2023-03-26T19:17:35.400Z,0.73
2023-03-26T19:20:08.513Z,1.27
2023-03-26T19:22:42.774Z,0.95
2023-03-26T19:25:24.613Z,0.80
2023-03-26T19:27:55.501Z,0.75
2023-03-26T19:30:33.869Z,0.75
2023-03-26T19:33:15.845Z,0.80
2023-03-26T19:35:48.262Z,0.85
2023-03-26T19:38:40.212Z,0.80
2023-03-26T19:41:24.619Z,0.80
2023-03-26T19:43:58.418Z,0.90
2023-03-26T19:46:30.861Z,0.80
2023-03-26T19:49:02.244Z,0.82
2023-03-26T19:51:37.407Z,1.05
2023-03-26T19:54:20.093Z,0.88
2023-03-26T19:56:50.164Z,0.90
2023-03-26T19:59:20.327Z,0.90
2023-03-26T20:01:50.659Z,1.00
2023-03-26T20:04:21.725Z,0.90
2023-03-26T20:06:53.142Z,0.90
2023-03-26T20:09:25.822Z,1.10
2023-03-26T20:11:56.106Z,1.15
2023-03-26T20:14:26.789Z,1.35
2023-03-26T20:16:56.398Z,1.50
2023-03-26T20:19:26.840Z,1.30
2023-03-26T20:21:57.043Z,1.20
2023-03-26T20:24:30.485Z,1.35
2023-03-26T20:27:01.488Z,1.17
2023-03-26T20:29:32.056Z,1.30
2023-03-26T20:32:03.984Z,1.30
2023-03-26T20:34:34.478Z,1.10
2023-03-26T20:37:04.981Z,1.30
2023-03-26T20:39:37.768Z,1.30
2023-03-26T20:42:08.832Z,1.20
2023-03-26T20:44:39.070Z,1.42
2023-03-26T20:47:09.630Z,1.13
2023-03-26T20:49:40.680Z,1.25
2023-03-26T20:52:14.073Z,1.25
2023-03-26T20:54:46.419Z,1.58
2023-03-26T20:57:16.482Z,1.33
2023-03-26T20:59:47.337Z,1.35
2023-03-26T21:02:17.269Z,1.55
2023-03-26T21:04:48.998Z,1.42
2023-03-26T21:07:20.411Z,1.52
2023-03-26T21:09:58.320Z,1.27
2023-03-26T21:12:34.823Z,1.60
2023-03-26T21:15:10.567Z,1.50
2023-03-26T21:17:48.431Z,1.50
2023-03-26T21:20:21.027Z,1.70
2023-03-26T21:23:01.517Z,1.70
2023-03-26T21:25:44.625Z,1.40
2023-03-26T21:28:41.877Z,1.52
2023-03-26T21:31:23.500Z,1.75
2023-03-26T21:33:55.889Z,1.80
2023-03-26T21:36:27.525Z,1.70
2023-03-26T21:38:59.053Z,1.80
2023-03-26T21:41:41.914Z,1.80
2023-03-26T21:44:12.340Z,1.70
2023-03-26T21:46:45.893Z,1.70
2023-03-26T21:49:19.065Z,1.88
2023-03-26T21:51:51.070Z,1.85
2023-03-26T21:54:33.792Z,2.20
2023-03-26T21:57:34.739Z,1.92
2023-03-26T22:00:15.614Z,2.08
2023-03-26T22:03:04.790Z,1.88
2023-03-26T22:05:46.427Z,1.85
2023-03-26T22:08:30.932Z,1.85
2023-03-26T22:11:01.260Z,2.03
2023-03-26T22:13:33.048Z,1.90
2023-03-26T22:16:03.299Z,2.03
2023-03-26T22:18:34.094Z,1.98
2023-03-26T22:21:04.947Z,2.03
2023-03-26T22:23:36.775Z,2.10
2023-03-26T22:26:09.860Z,2.15
2023-03-26T22:28:43.232Z,2.10
2023-03-26T22:31:14.529Z,1.80
2023-03-26T22:33:45.710Z,2.00
2023-03-26T22:36:23.224Z,1.92
2023-03-26T22:38:57.124Z,1.90
2023-03-26T22:41:30.137Z,1.65
2023-03-26T22:44:16.967Z,1.98
2023-03-26T22:46:51.905Z,1.80
2023-03-26T22:49:22.604Z,1.70
2023-03-26T22:51:53.292Z,2.00
2023-03-26T22:54:23.682Z,1.80
2023-03-26T22:56:55.841Z,1.80
2023-03-26T22:59:28.234Z,1.98
2023-03-26T23:01:59.040Z,2.00
2023-03-26T23:04:32.394Z,1.63
2023-03-26T23:07:02.903Z,1.70
2023-03-26T23:09:33.565Z,1.85
2023-03-26T23:12:03.950Z,1.98
2023-03-26T23:14:36.583Z,1.65
2023-03-26T23:17:08.069Z,1.90
2023-03-26T23:19:39.389Z,1.80
2023-03-26T23:22:10.123Z,1.95
2023-03-26T23:24:41.170Z,1.98
2023-03-26T23:27:12.511Z,1.90
2023-03-26T23:29:46.221Z,1.65
2023-03-26T23:32:24.194Z,1.67
2023-03-26T23:34:56.092Z,1.67
2023-03-26T23:37:27.135Z,1.75
2023-03-26T23:39:57.152Z,1.58
2023-03-26T23:42:28.580Z,1.52
2023-03-26T23:45:02.396Z,1.70
2023-03-26T23:47:35.153Z,1.65
2023-03-26T23:50:08.249Z,1.38
2023-03-26T23:52:39.158Z,1.40
2023-03-26T23:55:10.761Z,1.70
2023-03-26T23:57:41.074Z,1.33
